createdAt,value
2022-12-13T00:01:54.988Z,0.90
2022-12-13T00:04:26.486Z,0.80
2022-12-13T00:06:56.892Z,0.90
2022-12-13T00:09:23.804Z,0.90
2022-12-13T00:11:51.290Z,0.80
2022-12-13T00:14:18.395Z,0.80
2022-12-13T00:16:47.121Z,0.80
2022-12-13T00:19:15.023Z,0.90
2022-12-13T00:21:42.178Z,0.90
2022-12-13T00:24:12.091Z,0.90
2022-12-13T00:26:39.425Z,0.90
2022-12-13T00:29:07.896Z,0.90
2022-12-13T00:31:58.584Z,0.90
2022-12-13T00:34:23.965Z,0.90
2022-12-13T00:36:51.303Z,0.90
2022-12-13T00:39:19.344Z,0.90
2022-12-13T00:41:46.580Z,0.80
2022-12-13T00:44:16.836Z,0.80
2022-12-13T00:46:43.723Z,0.80
2022-12-13T00:49:13.872Z,0.80
2022-12-13T00:51:40.982Z,0.80
2022-12-13T00:54:07.846Z,0.80
2022-12-13T00:56:36.935Z,0.80
2022-12-13T00:59:04.339Z,0.70
2022-12-13T01:01:33.655Z,0.70
2022-12-13T01:04:03.252Z,0.70
2022-12-13T01:06:37.359Z,0.70
2022-12-13T01:09:06.897Z,0.70
2022-12-13T01:11:33.919Z,0.70
2022-12-13T01:14:01.282Z,0.70
2022-12-13T01:16:28.714Z,0.70
2022-12-13T01:18:57.932Z,0.70
2022-12-13T01:21:25.110Z,0.70
2022-12-13T01:23:54.583Z,0.70
2022-12-13T01:26:22.732Z,0.70
2022-12-13T01:28:53.778Z,0.70
2022-12-13T01:31:22.233Z,0.70
2022-12-13T01:33:49.626Z,0.70
2022-12-13T01:36:27.922Z,0.60
2022-12-13T01:38:58.411Z,0.60
2022-12-13T01:41:28.528Z,0.60
2022-12-13T01:44:35.088Z,0.60
2022-12-13T01:47:05.708Z,0.60
2022-12-13T01:49:32.764Z,0.60
2022-12-13T01:52:06.377Z,0.60
2022-12-13T01:54:39.245Z,0.50
2022-12-13T01:57:16.978Z,0.50
2022-12-13T01:59:46.691Z,0.50
2022-12-13T02:02:15.224Z,0.50
2022-12-13T02:04:45.623Z,0.50
2022-12-13T02:07:23.013Z,0.40
2022-12-13T02:09:57.560Z,0.40
2022-12-13T02:12:30.066Z,0.40
2022-12-13T02:15:01.423Z,0.40
2022-12-13T02:17:48.953Z,0.40
2022-12-13T02:20:35.212Z,0.40
2022-12-13T02:23:40.677Z,0.50
2022-12-13T02:26:38.348Z,0.40
2022-12-13T02:29:30.816Z,0.40
2022-12-13T02:32:17.207Z,0.40
2022-12-13T02:35:02.670Z,0.40
2022-12-13T02:37:53.843Z,0.40
2022-12-13T02:40:34.793Z,0.40
2022-12-13T02:43:09.392Z,0.40
2022-12-13T02:45:59.957Z,0.40
2022-12-13T02:48:36.724Z,0.40
2022-12-13T02:51:11.241Z,0.40
2022-12-13T02:53:41.553Z,0.40
2022-12-13T02:56:10.989Z,0.40
2022-12-13T02:58:47.963Z,0.40
2022-12-13T03:01:49.936Z,0.40
2022-12-13T03:04:29.045Z,0.40
2022-12-13T03:07:28.653Z,0.40
2022-12-13T03:10:02.556Z,0.50
2022-12-13T03:13:15.800Z,0.50
2022-12-13T03:15:50.797Z,0.50
2022-12-13T03:18:24.006Z,0.40
2022-12-13T03:20:58.934Z,0.50
2022-12-13T03:23:26.904Z,0.50
2022-12-13T03:25:57.134Z,0.40
2022-12-13T03:28:26.902Z,0.50
2022-12-13T03:30:54.263Z,0.40
2022-12-13T03:33:22.913Z,0.40
2022-12-13T03:35:50.998Z,0.40
2022-12-13T03:38:22.773Z,0.40
2022-12-13T03:41:00.398Z,0.40
2022-12-13T03:43:28.478Z,0.40
2022-12-13T03:45:56.032Z,0.40
2022-12-13T03:48:24.112Z,0.50
2022-12-13T03:50:54.806Z,0.50
2022-12-13T03:53:33.261Z,0.50
2022-12-13T03:56:04.387Z,0.50
2022-12-13T03:58:37.992Z,0.50
2022-12-13T04:01:16.639Z,0.50
2022-12-13T04:03:48.387Z,0.50
2022-12-13T04:06:22.438Z,0.40
2022-12-13T04:08:52.744Z,0.40
2022-12-13T04:11:42.373Z,0.40
2022-12-13T04:14:21.822Z,0.40
2022-12-13T04:16:51.712Z,0.40
2022-12-13T04:19:22.947Z,0.40
2022-12-13T04:21:54.823Z,0.40
2022-12-13T04:24:31.047Z,0.40
2022-12-13T04:27:00.960Z,0.40
2022-12-13T04:29:34.592Z,0.40
2022-12-13T04:32:03.882Z,0.40
2022-12-13T04:34:36.791Z,0.40
2022-12-13T04:37:05.380Z,0.40
2022-12-13T04:39:33.834Z,0.40
2022-12-13T04:42:02.066Z,0.40
2022-12-13T04:44:37.090Z,0.40
2022-12-13T04:47:05.311Z,0.40
2022-12-13T04:49:33.178Z,0.40
2022-12-13T04:52:01.913Z,0.40
2022-12-13T04:54:35.593Z,0.40
2022-12-13T04:57:05.741Z,0.40
2022-12-13T04:59:32.830Z,0.40
2022-12-13T05:02:00.132Z,0.40
2022-12-13T05:04:32.904Z,0.40
2022-12-13T05:07:01.467Z,0.40
2022-12-13T05:09:28.755Z,0.40
2022-12-13T05:12:01.349Z,0.30
2022-12-13T05:14:31.012Z,0.30
2022-12-13T05:17:02.136Z,0.30
2022-12-13T05:19:31.216Z,0.30
2022-12-13T05:22:01.517Z,0.30
2022-12-13T05:24:31.085Z,0.30
2022-12-13T05:26:58.849Z,0.30
2022-12-13T05:29:27.681Z,0.30
2022-12-13T05:31:55.359Z,0.30
2022-12-13T05:34:22.323Z,0.30
2022-12-13T05:36:52.276Z,0.30
2022-12-13T05:39:27.895Z,0.30
2022-12-13T05:42:01.218Z,0.30
2022-12-13T05:44:29.996Z,0.30
2022-12-13T05:46:57.219Z,0.30
2022-12-13T05:49:24.321Z,0.30
2022-12-13T05:51:51.527Z,0.30
2022-12-13T05:54:18.436Z,0.30
2022-12-13T05:56:46.904Z,0.30
2022-12-13T05:59:13.935Z,0.20
2022-12-13T06:01:43.602Z,0.20
2022-12-13T06:04:12.839Z,0.20
2022-12-13T06:06:51.090Z,0.20
2022-12-13T06:09:19.357Z,0.20
2022-12-13T06:11:46.527Z,0.20
2022-12-13T06:14:21.623Z,0.20
2022-12-13T06:16:52.155Z,0.20
2022-12-13T06:19:21.257Z,0.20
2022-12-13T06:21:48.997Z,0.20
2022-12-13T06:24:17.931Z,0.10
2022-12-13T06:26:45.955Z,0.10
2022-12-13T06:29:24.226Z,0.10
2022-12-13T06:32:01.707Z,0.10
2022-12-13T06:34:31.633Z,0.10
2022-12-13T06:36:59.001Z,0.10
2022-12-13T06:39:33.215Z,0.10
2022-12-13T06:42:02.195Z,0.10
2022-12-13T06:44:29.432Z,0.10
2022-12-13T06:47:10.445Z,0.10
2022-12-13T06:49:38.233Z,0.10
2022-12-13T06:52:05.638Z,0.10
2022-12-13T06:54:41.071Z,0.00
2022-12-13T06:57:08.669Z,0.00
2022-12-13T06:59:35.915Z,0.00
2022-12-13T07:02:24.892Z,0.00
2022-12-13T07:04:53.806Z,0.00
2022-12-13T07:07:21.202Z,0.00
2022-12-13T07:09:48.692Z,0.00
2022-12-13T07:12:16.280Z,0.00
2022-12-13T07:15:16.220Z,-0.10
2022-12-13T07:17:43.736Z,-0.10
2022-12-13T07:20:20.329Z,-0.10
2022-12-13T07:22:59.557Z,-0.10
2022-12-13T07:25:29.882Z,-0.10
2022-12-13T07:28:03.038Z,-0.10
2022-12-13T07:30:41.333Z,-0.10
2022-12-13T07:33:12.137Z,-0.10
2022-12-13T07:35:40.006Z,-0.10
2022-12-13T07:38:10.832Z,-0.10
2022-12-13T07:40:39.955Z,-0.10
2022-12-13T07:43:09.992Z,0.00
2022-12-13T07:45:39.092Z,0.00
2022-12-13T07:48:09.038Z,0.00
2022-12-13T07:50:39.087Z,0.00
2022-12-13T07:53:10.648Z,0.00
2022-12-13T07:55:39.396Z,0.00
2022-12-13T07:58:10.421Z,0.10
2022-12-13T08:00:46.164Z,0.10
2022-12-13T08:03:30.390Z,0.10
2022-12-13T08:06:18.743Z,0.10
2022-12-13T08:08:50.550Z,0.10
2022-12-13T08:11:17.881Z,0.20
2022-12-13T08:13:48.407Z,0.20
2022-12-13T08:16:26.050Z,0.20
2022-12-13T08:19:02.593Z,0.30
2022-12-13T08:21:56.892Z,0.30
2022-12-13T08:24:29.723Z,0.30
2022-12-13T08:27:02.699Z,0.30
2022-12-13T08:29:38.055Z,0.40
2022-12-13T08:32:12.009Z,0.40
2022-12-13T08:34:45.624Z,0.40
2022-12-13T08:37:23.920Z,0.50
2022-12-13T09:41:30.650Z,0.90
2022-12-13T09:44:07.587Z,0.90
2022-12-13T09:47:04.202Z,1.00
2022-12-13T09:49:53.434Z,1.00
2022-12-13T09:52:33.474Z,1.10
2022-12-13T09:55:00.779Z,1.10
2022-12-13T09:57:48.037Z,1.10
2022-12-13T10:00:21.731Z,1.20
2022-12-13T10:02:57.461Z,1.20
2022-12-13T10:05:35.728Z,1.30
2022-12-13T10:08:59.248Z,1.30
2022-12-13T10:11:32.916Z,1.30
2022-12-13T10:14:17.036Z,1.40
2022-12-13T10:16:52.006Z,1.40
2022-12-13T10:19:30.328Z,1.50
2022-12-13T10:22:02.131Z,1.60
2022-12-13T10:24:50.962Z,1.60
2022-12-13T10:27:42.291Z,1.70
2022-12-13T10:30:14.536Z,1.70
2022-12-13T10:32:59.595Z,1.80
2022-12-13T10:35:40.815Z,1.80
2022-12-13T10:38:13.844Z,1.80
2022-12-13T10:40:48.387Z,1.90
2022-12-13T10:43:23.024Z,1.90
2022-12-13T10:45:59.872Z,2.00
2022-12-13T10:48:49.193Z,2.10
2022-12-13T10:51:21.394Z,2.20
2022-12-13T10:53:54.848Z,2.20
2022-12-13T10:56:24.113Z,2.30
2022-12-13T10:59:20.850Z,2.30
2022-12-13T11:01:54.918Z,2.40
2022-12-13T11:04:33.993Z,2.50
2022-12-13T11:07:29.919Z,2.60
2022-12-13T11:10:05.380Z,2.70
2022-12-13T11:12:33.293Z,2.70
2022-12-13T11:15:07.523Z,2.80
2022-12-13T11:17:44.741Z,2.90
2022-12-13T11:20:25.022Z,2.90
2022-12-13T11:23:03.144Z,2.90
2022-12-13T11:25:56.310Z,2.90
2022-12-13T11:28:32.305Z,2.80
2022-12-13T11:31:21.511Z,2.80
2022-12-13T11:34:00.038Z,2.90
2022-12-13T11:36:43.862Z,2.90
2022-12-13T11:39:13.997Z,2.90
2022-12-13T11:42:06.289Z,2.90
2022-12-13T11:44:47.762Z,2.90
2022-12-13T11:47:43.221Z,3.00
2022-12-13T11:50:33.836Z,3.00
2022-12-13T11:53:56.268Z,3.00
2022-12-13T11:56:43.993Z,3.00
2022-12-13T11:59:29.885Z,2.90
2022-12-13T12:52:16.054Z,2.90
2022-12-13T12:55:20.906Z,3.00
2022-12-13T12:58:11.517Z,3.00
2022-12-13T13:01:17.783Z,3.00
2022-12-13T13:07:06.187Z,3.10
2022-12-13T13:10:16.419Z,3.10
2022-12-13T13:13:16.323Z,3.10
2022-12-13T13:19:25.407Z,3.00
2022-12-13T13:22:01.308Z,3.00
2022-12-13T13:24:42.243Z,3.00
2022-12-13T13:27:37.412Z,3.00
2022-12-13T13:30:34.723Z,2.90
2022-12-13T13:33:03.587Z,2.90
2022-12-13T13:35:37.533Z,2.90
2022-12-13T13:38:52.770Z,2.90
2022-12-13T13:41:39.801Z,2.90
2022-12-13T13:44:54.653Z,2.90
2022-12-13T13:47:43.352Z,2.90
2022-12-13T13:51:12.475Z,2.90
2022-12-13T13:54:13.795Z,2.90
2022-12-13T13:57:11.888Z,2.90
2022-12-13T14:02:43.013Z,2.80
2022-12-13T14:05:46.146Z,2.80
2022-12-13T14:08:38.581Z,2.80
2022-12-13T14:11:34.615Z,2.80
2022-12-13T14:14:22.517Z,2.80
2022-12-13T14:17:37.559Z,2.80
2022-12-13T14:20:28.407Z,2.80
2022-12-13T14:23:41.279Z,2.80
2022-12-13T14:29:30.628Z,2.70
2022-12-13T14:32:28.905Z,2.70
2022-12-13T14:34:57.909Z,2.70
2022-12-13T14:37:33.260Z,2.70
2022-12-13T14:40:27.430Z,2.70
2022-12-13T14:43:04.913Z,2.70
2022-12-13T14:45:38.926Z,2.70
2022-12-13T14:48:28.731Z,2.70
2022-12-13T14:51:33.086Z,2.60
2022-12-13T14:54:41.337Z,2.60
2022-12-13T14:57:23.098Z,2.60
2022-12-13T15:00:00.802Z,2.50
2022-12-13T15:02:33.985Z,2.50
2022-12-13T15:05:07.487Z,2.50
2022-12-13T15:07:49.773Z,2.40
2022-12-13T15:10:34.147Z,2.40
2022-12-13T15:13:04.073Z,2.40
2022-12-13T15:15:56.178Z,2.40
2022-12-13T15:18:26.159Z,2.40
2022-12-13T15:20:58.715Z,2.40
2022-12-13T15:27:10.768Z,2.30
2022-12-13T15:29:54.829Z,2.30
2022-12-13T15:32:25.901Z,2.30
2022-12-13T15:34:57.335Z,2.20
2022-12-13T15:37:33.489Z,2.20
2022-12-13T15:40:09.734Z,2.20
2022-12-13T15:42:40.126Z,2.20
2022-12-13T15:45:37.023Z,2.20
2022-12-13T15:48:19.732Z,2.20
2022-12-13T15:50:49.111Z,2.20
2022-12-13T15:53:26.627Z,2.10
2022-12-13T15:55:57.585Z,2.10
2022-12-13T15:58:35.820Z,2.10
2022-12-13T16:01:06.055Z,2.00
2022-12-13T16:03:51.601Z,2.00
2022-12-13T16:06:25.855Z,2.00
2022-12-13T16:08:57.148Z,2.00
2022-12-13T16:11:51.985Z,2.00
2022-12-13T16:14:31.466Z,2.00
2022-12-13T16:17:18.298Z,2.00
2022-12-13T16:19:45.639Z,2.00
2022-12-13T16:22:12.647Z,1.90
2022-12-13T16:24:39.750Z,1.90
2022-12-13T16:27:10.416Z,1.90
2022-12-13T16:29:37.690Z,1.90
2022-12-13T16:32:08.432Z,1.90
2022-12-13T16:34:39.469Z,1.90
2022-12-13T16:37:08.822Z,1.90
2022-12-13T16:39:54.123Z,1.90
2022-12-13T16:42:26.128Z,1.90
2022-12-13T16:45:17.785Z,1.90
2022-12-13T16:47:48.304Z,1.90
2022-12-13T16:50:19.208Z,1.90
2022-12-13T16:52:46.787Z,1.90
2022-12-13T16:55:13.799Z,1.90
2022-12-13T16:57:47.692Z,1.80
2022-12-13T17:00:18.439Z,1.80
2022-12-13T17:02:48.268Z,1.80
2022-12-13T17:05:21.824Z,1.80
2022-12-13T17:07:49.655Z,1.80
2022-12-13T17:10:18.071Z,1.80
2022-12-13T17:12:45.730Z,1.80
2022-12-13T17:18:14.717Z,1.80
2022-12-13T17:20:42.350Z,1.80
2022-12-13T17:23:18.263Z,1.90
2022-12-13T17:25:45.968Z,1.90
2022-12-13T17:28:25.284Z,1.90
2022-12-13T17:30:54.979Z,1.90
2022-12-13T17:33:25.295Z,1.80
2022-12-13T17:35:52.619Z,1.90
2022-12-13T17:38:21.380Z,1.90
2022-12-13T17:41:00.743Z,1.90
2022-12-13T17:43:34.379Z,1.90
2022-12-13T17:46:02.639Z,1.90
2022-12-13T17:48:39.587Z,1.90
2022-12-13T17:51:09.622Z,1.90
2022-12-13T17:53:39.110Z,1.90
2022-12-13T17:56:13.242Z,1.90
2022-12-13T17:58:41.649Z,1.90
2022-12-13T18:01:11.412Z,1.90
2022-12-13T18:03:42.041Z,1.90
2022-12-13T18:06:13.593Z,1.90
2022-12-13T18:08:42.814Z,1.90
2022-12-13T18:14:00.393Z,1.90
2022-12-13T18:16:39.357Z,1.90
2022-12-13T18:19:08.811Z,1.90
2022-12-13T18:21:37.702Z,1.90
2022-12-13T18:24:14.330Z,1.80
2022-12-13T18:26:41.606Z,1.80
2022-12-13T18:29:09.895Z,1.80
2022-12-13T18:31:37.855Z,1.80
2022-12-13T18:34:09.446Z,1.80
2022-12-13T18:36:40.853Z,1.80
2022-12-13T18:39:08.717Z,1.80
2022-12-13T18:41:36.504Z,1.80
2022-12-13T18:44:13.789Z,1.80
2022-12-13T18:46:46.140Z,1.80
2022-12-13T18:49:16.367Z,1.80
2022-12-13T18:51:47.684Z,1.80
2022-12-13T18:54:16.840Z,1.80
2022-12-13T18:56:47.116Z,1.80
2022-12-13T18:59:15.845Z,1.80
2022-12-13T19:01:46.909Z,1.80
2022-12-13T19:04:14.921Z,1.80
2022-12-13T19:06:44.480Z,1.80
2022-12-13T19:09:12.678Z,1.80
2022-12-13T19:11:39.968Z,1.80
2022-12-13T19:14:07.493Z,1.80
2022-12-13T19:16:35.004Z,1.70
2022-12-13T19:19:03.116Z,1.70
2022-12-13T19:21:39.722Z,1.70
2022-12-13T19:24:10.959Z,1.70
2022-12-13T19:26:53.109Z,1.70
2022-12-13T19:29:31.211Z,1.70
2022-12-13T19:32:04.741Z,1.70
2022-12-13T19:34:33.855Z,1.70
2022-12-13T19:37:06.582Z,1.70
2022-12-13T19:39:34.661Z,1.70
2022-12-13T19:42:12.673Z,1.70
2022-12-13T19:44:45.860Z,1.70
2022-12-13T19:47:25.242Z,1.70
2022-12-13T19:49:56.137Z,1.70
2022-12-13T19:52:24.834Z,1.60
2022-12-13T19:54:59.105Z,1.60
2022-12-13T19:57:27.841Z,1.60
2022-12-13T19:59:58.659Z,1.60
2022-12-13T20:02:26.981Z,1.60
2022-12-13T20:04:54.724Z,1.60
2022-12-13T20:07:22.996Z,1.60
2022-12-13T20:09:54.115Z,1.60
2022-12-13T20:12:23.340Z,1.60
2022-12-13T20:15:06.659Z,1.60
2022-12-13T20:17:36.379Z,1.70
2022-12-13T20:20:05.317Z,1.70
2022-12-13T20:22:34.972Z,1.60
2022-12-13T20:25:13.999Z,1.60
2022-12-13T20:27:51.568Z,1.70
2022-12-13T20:30:24.084Z,1.70
2022-12-13T20:32:52.229Z,1.70
2022-12-13T20:35:20.113Z,1.70
2022-12-13T20:37:52.780Z,1.70
2022-12-13T20:40:26.580Z,1.80
2022-12-13T20:42:53.827Z,1.70
2022-12-13T20:45:24.508Z,1.80
2022-12-13T20:47:53.344Z,1.80
2022-12-13T20:50:23.407Z,1.80
2022-12-13T20:52:55.836Z,1.80
2022-12-13T20:55:23.400Z,1.80
2022-12-13T20:57:50.912Z,1.80
2022-12-13T21:00:24.553Z,1.80
2022-12-13T21:02:51.940Z,1.80
2022-12-13T21:05:21.817Z,1.80
2022-12-13T21:08:26.673Z,1.80
2022-12-13T21:11:05.050Z,1.80
2022-12-13T21:13:39.753Z,1.80
2022-12-13T21:16:10.183Z,1.80
2022-12-13T21:18:37.445Z,1.90
2022-12-13T21:21:07.375Z,1.90
2022-12-13T21:23:37.779Z,1.90
2022-12-13T21:26:04.995Z,1.90
2022-12-13T21:28:37.232Z,1.90
2022-12-13T21:31:18.892Z,1.90
2022-12-13T21:33:59.787Z,1.90
2022-12-13T21:36:34.601Z,1.90
2022-12-13T21:39:06.657Z,1.90
2022-12-13T21:41:36.357Z,1.90
2022-12-13T21:44:05.979Z,1.90
2022-12-13T21:47:10.361Z,1.90
2022-12-13T21:49:21.921Z,1.90
2022-12-13T21:51:49.629Z,1.90
2022-12-13T21:54:17.057Z,1.80
2022-12-13T21:57:03.316Z,1.80
2022-12-13T21:59:33.046Z,1.80
2022-12-13T22:02:12.518Z,1.80
2022-12-13T22:04:44.558Z,1.80
2022-12-13T22:07:32.731Z,1.80
2022-12-13T22:10:07.685Z,1.80
2022-12-13T22:12:38.074Z,1.80
2022-12-13T22:15:10.178Z,1.90
2022-12-13T22:17:38.334Z,1.80
2022-12-13T22:20:09.072Z,1.80
2022-12-13T22:22:40.819Z,1.90
2022-12-13T22:25:10.110Z,1.90
2022-12-13T22:27:38.415Z,1.90
2022-12-13T22:30:10.413Z,1.90
2022-12-13T22:32:39.547Z,1.90
2022-12-13T22:35:10.572Z,1.90
2022-12-13T22:37:39.995Z,1.90
2022-12-13T22:40:07.612Z,1.90
2022-12-13T22:42:35.451Z,1.90
2022-12-13T22:45:02.655Z,1.90
2022-12-13T22:47:30.242Z,1.90
2022-12-13T22:50:01.567Z,1.90
2022-12-13T22:52:33.781Z,1.90
2022-12-13T22:55:02.106Z,1.90
2022-12-13T22:57:29.521Z,1.90
2022-12-13T22:59:57.391Z,1.90
2022-12-13T23:02:24.482Z,1.90
2022-12-13T23:04:55.020Z,1.90
2022-12-13T23:07:22.663Z,1.90
2022-12-13T23:09:49.917Z,1.90
2022-12-13T23:12:35.660Z,1.90
2022-12-13T23:15:02.910Z,1.90
2022-12-13T23:17:33.468Z,1.90
2022-12-13T23:20:01.602Z,2.00
2022-12-13T23:22:29.210Z,1.90
2022-12-13T23:24:56.263Z,1.90
2022-12-13T23:27:24.532Z,1.90
2022-12-13T23:29:59.362Z,1.90
2022-12-13T23:32:26.847Z,1.90
2022-12-13T23:34:54.415Z,1.90
2022-12-13T23:37:21.689Z,1.90
2022-12-13T23:39:48.988Z,1.90
2022-12-13T23:42:19.346Z,1.90
2022-12-13T23:44:46.703Z,1.90
2022-12-13T23:47:13.830Z,1.90
2022-12-13T23:49:43.599Z,1.90
2022-12-13T23:52:10.535Z,1.90
2022-12-13T23:54:37.968Z,1.90
2022-12-13T23:57:05.380Z,1.90
2022-12-13T23:59:32.358Z,2.00
